• Join FlightAware (Why Join?)
  • Login
  • US Flag 
07:14PM EST


 

Airport Tracker/Info


-or-


 

Live Flight TrackerFlight Track Log ✈ EJA396 ✈ 25-Jul-2013 ✈ KUGN - KEGE

Flight Track Log - Related Links

Times and Time Zones

All times are in EDT time to prevent confusion due to time zone crossing. See the EJA396 flight status page for this flight to view local times or setup timezone preferences in your user account.

Time Position Orientation Groundspeed Altitude Reporting Facility
EDT Latitude Longitude Course Direction KTS MPH feet Rate Location/Type
07:36PM 42.4333 -87.8000 190° South 196 226 2,500  Level Chicago TRACON
07:37PM 42.3775 -87.8139 190° South 244 281 4,400 2,340 Climbing Chicago Center
07:38PM 42.3289 -87.8942 231° Southwest 266 306 8,100 3,840 Climbing Chicago Center
07:39PM 42.2908 -87.9967 243° Southwest 292 336 12,400 3,480 Climbing Chicago Center
07:40PM 42.2497 -88.0992 242° Southwest 311 358 15,300 2,640 Climbing Chicago Center
07:41PM 42.2031 -88.2106 241° Southwest 339 390 17,900 2,640 Climbing Chicago Center
07:42PM 42.1436 -88.3483 240° Southwest 357 411 20,900 2,640 Climbing Chicago Center
07:43PM 42.0967 -88.4642 241° Southwest 356 410 23,400 2,340 Climbing Chicago Center
07:44PM 42.0486 -88.5819 241° Southwest 361 415 25,800 2,280 Climbing Chicago Center
07:45PM 41.9994 -88.7000 241° Southwest 365 420 28,200 2,100 Climbing Chicago Center
07:47PM 41.9506 -88.8186 241° Southwest 367 422 30,200 2,100 Climbing Chicago Center
07:48PM 41.8914 -88.9592 241° Southwest 367 422 32,600 2,040 Climbing Chicago Center
07:49PM 41.8775 -89.0850 262° West 345 397 34,500 1,620 Climbing Chicago Center
07:50PM 41.8700 -89.2125 266° West 346 398 36,000 1,440 Climbing Chicago Center
07:51PM 41.8608 -89.3392 264° West 347 399 37,500 1,440 Climbing Chicago Center
07:52PM 41.8528 -89.4656 265° West 346 398 39,000 1,200 Climbing Chicago Center
07:53PM 41.8411 -89.6125 264° West 336 387 40,000 480 Climbing Chicago Center
07:54PM 41.8322 -89.7417 265° West 347 399 40,000  Level Chicago Center
07:55PM 41.8203 -89.8892 264° West 374 430 40,000  Level Chicago Center
07:56PM 41.8122 -90.0208 265° West 382 440 40,000  Level Chicago Center
07:57PM 41.7989 -90.1900 264° West 384 442 40,000  Level Chicago Center
07:58PM 41.7897 -90.3186 265° West 383 441 40,000  Level Chicago Center
07:59PM 41.7767 -90.4694 263° West 383 441 40,000  Level Chicago Center
08:00PM 41.7664 -90.6008 264° West 384 442 40,000  Level Chicago Center
08:01PM 41.7547 -90.7494 264° West 380 437 40,000  Level Chicago Center
08:02PM 41.7408 -90.9092 263° West 381 438 40,000  Level Chicago Center
08:03PM 41.7292 -91.0558 264° West 378 435 40,000  Level Chicago Center
08:04PM 41.7169 -91.1961 263° West 380 437 40,000  Level Chicago Center
08:05PM 41.7047 -91.3358 263° West 380 437 40,000  Level Chicago Center
08:06PM 41.6936 -91.4764 264° West 381 438 40,000  Level Chicago Center
08:07PM 41.6797 -91.6183 263° West 386 444 40,000  Level Chicago Center
08:08PM 41.6650 -91.7872 263° West 385 443 40,000  Level Chicago Center
08:09PM 41.6519 -91.9300 263° West 389 448 40,000  Level Chicago Center
08:10PM 41.6386 -92.0725 263° West 388 447 40,000  Level Chicago Center
08:11PM 41.6256 -92.2150 263° West 389 448 40,000  Level Chicago Center
08:12PM 41.6125 -92.3583 263° West 393 452 40,000 120 Level Chicago Center
08:13PM 41.5944 -92.5286 262° West 390 449 40,300 360 Climbing Chicago Center
08:14PM 41.5817 -92.6658 263° West 380 437 40,800 480 Climbing Chicago Center
08:16PM 41.5675 -92.8108 263° West 381 438 41,300 480 Climbing Chicago Center
08:17PM 41.5528 -92.9478 262° West 380 437 41,800 480 Climbing Chicago Center
08:18PM 41.5392 -93.0889 263° West 384 442 42,300 480 Climbing Chicago Center
08:19PM 41.5211 -93.2547 262° West 382 440 42,900 300 Climbing Chicago Center
08:20PM 41.5069 -93.3933 262° West 382 440 43,000  Climbing Chicago Center
08:21PM 41.4922 -93.5353 262° West 388 447 43,000  Level Chicago Center
08:22PM 41.4772 -93.6761 262° West 387 445 43,000  Level Chicago Center
08:23PM 41.4617 -93.8172 262° West 388 447 43,000  Level Chicago Center
08:24PM 41.4425 -93.9869 261° West 390 449 43,000  Level Chicago Center
08:25PM 41.4261 -94.1278 261° West 388 447 43,000  Level Chicago Center
08:26PM 41.4108 -94.2675 262° West 388 447 43,000  Level Chicago Center
08:27PM 41.3950 -94.4097 262° West 389 448 43,000  Level Chicago Center
08:28PM 41.3703 -94.6369 262° West 388 447 43,000  Level Minneapolis Center
08:29PM 41.3542 -94.7789 261° West 388 447 43,000  Level Minneapolis Center
08:30PM 41.3367 -94.9208 261° West 388 447 43,000  Level Minneapolis Center
08:31PM 41.3194 -95.0622 261° West 388 447 43,000  Level Minneapolis Center
08:32PM 41.3017 -95.2031 261° West 387 445 43,000  Level Minneapolis Center
08:34PM 41.2844 -95.3436 261° West 385 443 43,000  Level Minneapolis Center
08:35PM 41.2628 -95.5106 260° West 383 441 43,000  Level Minneapolis Center
08:36PM 41.2447 -95.6597 261° West 379 436 43,000  Level Minneapolis Center
08:37PM 41.2242 -95.8250 261° West 378 435 43,000  Level Minneapolis Center
08:38PM 41.2061 -95.9628 260° West 378 435 43,000  Level Minneapolis Center
08:39PM 41.1889 -96.1022 261° West 380 437 43,000  Level Minneapolis Center
08:40PM 41.1700 -96.2417 260° West 384 442 43,000  Level Minneapolis Center
08:41PM 41.1528 -96.3767 260° West 379 436 43,000  Level Minneapolis Center
08:42PM 41.1347 -96.5147 260° West 380 437 43,000  Level Minneapolis Center
08:43PM 41.1156 -96.6519 260° West 379 436 43,000  Level Minneapolis Center
08:44PM 41.0933 -96.8172 260° West 380 437 43,000  Level Minneapolis Center
08:45PM 41.0731 -96.9564 259° West 383 441 43,000  Level Minneapolis Center
08:46PM 41.0536 -97.0961 260° West 385 443 43,000  Level Minneapolis Center
08:47PM 41.0342 -97.2356 260° West 383 441 43,000  Level Minneapolis Center
08:48PM 41.0142 -97.3747 259° West 384 442 43,000  Level Minneapolis Center
08:49PM 40.9950 -97.5144 260° West 385 443 43,000  Level Minneapolis Center
08:50PM 40.9703 -97.6819 259° West 386 444 43,000  Level Minneapolis Center
08:51PM 40.9500 -97.8214 259° West 386 444 43,000  Level Minneapolis Center
08:52PM 40.9300 -97.9594 259° West 383 441 43,000  Level Minneapolis Center
08:53PM 40.9097 -98.0989 259° West 384 442 43,000  Level Minneapolis Center
08:54PM 40.8889 -98.2381 259° West 384 442 43,000  Level Minneapolis Center
08:55PM 40.8669 -98.3767 258° West 384 442 43,000  Level Minneapolis Center
08:56PM 40.8431 -98.5389 259° West 386 444 43,000  Level Minneapolis Center
08:58PM 40.8208 -98.6769 258° West 386 444 43,000  Level Minneapolis Center
08:59PM 40.7994 -98.8169 259° West 387 445 43,000  Level Minneapolis Center
09:00PM 40.7792 -98.9561 259° West 387 445 43,000  Level Minneapolis Center
09:01PM 40.7575 -99.0958 258° West 388 447 43,000  Level Minneapolis Center
09:01PM 40.7378 -99.2189 258° West 389 448 43,000  Level Denver Center
09:02PM 40.7158 -99.3581 258° West 387 445 43,000  Level Denver Center
09:03PM 40.6931 -99.4975 258° West 388 447 43,000  Level Denver Center
09:05PM 40.6714 -99.6356 258° West 385 443 43,000  Level Denver Center
09:06PM 40.6486 -99.7725 258° West 383 441 43,000  Level Denver Center
09:07PM 40.6194 -99.9458 258° West 385 443 43,000  Level Denver Center
09:08PM 40.5942 -100.1008 258° West 387 445 43,000  Level Denver Center
09:09PM 40.5717 -100.2328 257° West 386 444 43,000  Level Denver Center
09:10PM 40.5450 -100.3889 257° West 390 449 43,000  Level Denver Center
09:11PM 40.5222 -100.5236 258° West 392 451 43,000  Level Denver Center
09:12PM 40.4983 -100.6581 257° West 393 452 43,000  Level Denver Center
09:13PM 40.4714 -100.8172 258° West 397 457 43,000  Level Denver Center
09:14PM 40.4481 -100.9536 257° West 398 458 43,000  Level Denver Center
09:15PM 40.4289 -101.1150 261° West 398 458 43,000  Level Denver Center
09:16PM 40.4122 -101.2536 261° West 400 460 43,000  Level Denver Center
09:17PM 40.3928 -101.4150 261° West 402 463 43,000  Level Denver Center
09:18PM 40.3747 -101.5536 260° West 403 464 43,000  Level Denver Center
09:19PM 40.3564 -101.6922 260° West 403 464 43,000  Level Denver Center
09:20PM 40.3336 -101.8786 261° West 406 467 43,000  Level Denver Center
09:21PM 40.3114 -102.0414 260° West 408 470 43,000  Level Denver Center
09:22PM 40.2928 -102.1814 260° West 408 470 43,000  Level Denver Center
09:23PM 40.2736 -102.3194 260° West 404 465 43,000  Level Denver Center
09:25PM 40.2522 -102.4836 260° West 409 471 43,000  Level Denver Center
09:26PM 40.2325 -102.6206 259° West 403 464 43,000  Level Denver Center
09:27PM 40.2097 -102.7850 260° West 403 464 43,000  Level Denver Center
09:28PM 40.1906 -102.9281 260° West 401 461 43,000  Level Denver Center
09:29PM 40.1703 -103.0692 259° West 397 457 43,000  Level Denver Center
09:30PM 40.1517 -103.2097 260° West 394 453 43,000  Level Denver Center
09:31PM 40.1436 -103.3536 266° West 396 456 43,000  Level Denver Center
09:32PM 40.1331 -103.4953 264° West 396 456 43,000  Level Denver Center
09:33PM 40.1208 -103.6644 265° West 393 452 43,000 -540 Level Denver Center
09:34PM 40.1103 -103.8081 265° West 399 459 42,000 -1,080 Descending Denver Center
09:35PM 40.1003 -103.9492 265° West 392 451 40,800 -1,320 Descending Denver Center
09:36PM 40.0886 -104.0908 264° West 394 453 39,300 -1,440 Descending Denver Center
09:37PM 40.0850 -104.2306 268° West 384 442 37,900 -1,440 Descending Denver Center
09:38PM 40.0978 -104.3633 277° West 370 426 36,400 -1,620 Descending Denver Center
09:39PM 40.1094 -104.5297 275° West 387 445 34,600 -1,620 Descending Denver Center
09:40PM 40.1181 -104.6756 274° West 403 464 33,100 -1,500 Descending Denver Center
09:41PM 40.1378 -104.8164 280° West 398 458 31,600 -1,500 Descending Denver Center
09:42PM 40.1322 -104.9611 267° West 406 467 30,100 -1,440 Descending Denver Center
09:43PM 40.1369 -105.1000 273° West 386 444 28,700 -1,620 Descending Denver Center
09:44PM 40.1419 -105.2558 272° West 349 402 26,900 -1,620 Descending Denver Center
09:45PM 40.1272 -105.3767 261° West 339 390 25,400 -1,440 Descending Denver Center
09:46PM 40.1139 -105.4967 262° West 325 374 24,000 -720 Descending Denver Center
09:47PM 40.1011 -105.6167 262° West 333 383 24,000 -480 Level Denver Center
09:48PM 40.0839 -105.7506 260° West 348 400 23,100 -1,020 Descending Denver Center
09:49PM 40.0731 -105.8403 261° West 286 329 21,900 -1,260 Descending Denver Center
09:50PM 40.0614 -105.9486 262° West 247 284 20,500 -1,320 Descending Denver Center
09:51PM 40.0508 -106.0356 261° West 242 278 19,300 -1,200 Descending Denver Center
09:52PM 40.0408 -106.1253 262° West 249 287 18,100 -1,320 Descending Denver Center
09:53PM 40.0283 -106.2278 261° West 272 313 16,600 -1,320 Descending Denver Center
09:54PM 40.0186 -106.3219 262° West 269 310 15,400 -1,200 Descending Denver Center
09:55PM 40.0069 -106.4094 260° West 258 297 14,200 -720 Descending Denver Center
09:56PM 39.9539 -106.4622 217° Southwest 254 292 14,000 -120 Descending Denver Center
09:58PM 39.8881 -106.4903 198° South 249 287 14,000  Level Denver Center
09:59PM 39.8175 -106.5208 198° South 258 297 14,000 -180 Level Denver Center
10:00PM 39.7367 -106.5542 198° South 254 292 13,700 -780 Descending Denver Center
10:01PM 39.6900 -106.5997 217° Southwest 232 267 12,400 -1,320 Descending Denver Center
10:02PM 39.6783 -106.6747 259° West 214 246 11,000 -1,260 Descending Denver Center
10:03PM 39.6686 -106.7358 258° West 186 214 9,800 -1,260 Descending Denver Center
10:04PM 39.6542 -106.7933 252° West 170 196 8,500 -1,200 Descending Denver Center
10:05PM 39.6478 -106.8528 262° West 168 193 7,400 -1,020 Descending Denver Center
10:06PM 39.6442 -106.9103 265° West 156 180 6,500 -600 Descending Denver Center
10:07PM 39.6408 -106.9242 253° West 86 99 6,200 -300 Descending Denver Center